createdAt,value
2023-03-31T00:01:15.373Z,36.50
2023-03-31T00:03:45.171Z,35.25
2023-03-31T00:06:19.268Z,37.50
2023-03-31T00:08:52.784Z,35.25
2023-03-31T00:11:22.846Z,34.00
2023-03-31T00:13:51.780Z,33.50
2023-03-31T00:16:20.726Z,32.00
2023-03-31T00:18:51.683Z,34.75
2023-03-31T00:21:26.055Z,35.25
2023-03-31T00:24:02.635Z,35.00
2023-03-31T00:26:31.694Z,34.25
2023-03-31T00:29:01.356Z,33.50
2023-03-31T00:31:30.281Z,35.00
2023-03-31T00:33:59.081Z,32.50
2023-03-31T00:36:30.748Z,33.75
2023-03-31T00:39:10.302Z,32.25
2023-03-31T00:41:40.066Z,33.00
2023-03-31T00:44:15.604Z,34.75
2023-03-31T00:46:53.897Z,33.75
2023-03-31T00:49:25.752Z,37.50
2023-03-31T00:51:58.481Z,35.00
2023-03-31T00:54:28.617Z,36.25
2023-03-31T00:56:59.463Z,34.75
2023-03-31T00:59:32.544Z,36.00
2023-03-31T01:02:03.749Z,36.75
2023-03-31T01:04:45.516Z,34.75
2023-03-31T01:07:20.576Z,32.75
2023-03-31T01:09:49.948Z,35.25
2023-03-31T01:12:20.185Z,32.00
2023-03-31T01:14:51.880Z,37.00
2023-03-31T01:17:23.318Z,35.00
2023-03-31T01:20:13.217Z,29.50
2023-03-31T01:23:18.073Z,35.00
2023-03-31T01:26:21.807Z,35.50
2023-03-31T01:29:09.632Z,34.25
2023-03-31T01:32:13.111Z,35.75
2023-03-31T01:34:59.492Z,32.00
2023-03-31T01:38:06.397Z,33.25
2023-03-31T01:40:44.380Z,32.25
2023-03-31T01:43:27.840Z,35.50
2023-03-31T01:46:12.643Z,36.00
2023-03-31T01:48:56.157Z,36.25
2023-03-31T01:51:41.636Z,36.00
2023-03-31T01:54:23.886Z,36.25
2023-03-31T01:57:14.889Z,31.50
2023-03-31T02:00:14.747Z,36.75
2023-03-31T02:02:52.548Z,35.50
2023-03-31T02:05:26.834Z,35.25
2023-03-31T02:08:31.275Z,35.50
2023-03-31T02:11:01.442Z,34.25
2023-03-31T02:13:31.859Z,34.25
2023-03-31T02:16:04.253Z,35.00
2023-03-31T02:18:39.151Z,36.00
2023-03-31T02:21:12.109Z,35.50
2023-03-31T02:23:40.956Z,37.75
2023-03-31T02:26:20.871Z,39.00
2023-03-31T02:28:49.622Z,36.25
2023-03-31T02:31:49.048Z,36.00
2023-03-31T02:34:17.754Z,38.25
2023-03-31T02:36:47.108Z,37.25
2023-03-31T02:39:21.110Z,33.75
2023-03-31T02:41:49.573Z,38.25
2023-03-31T02:44:19.090Z,36.25
2023-03-31T02:46:48.524Z,37.00
2023-03-31T02:49:19.257Z,35.25
2023-03-31T02:52:04.294Z,37.75
2023-03-31T02:55:00.430Z,36.00
2023-03-31T02:57:50.974Z,36.25
2023-03-31T03:00:43.953Z,36.75
2023-03-31T03:03:21.031Z,36.25
2023-03-31T03:06:18.066Z,36.75
2023-03-31T03:09:09.882Z,36.25
2023-03-31T03:11:56.364Z,39.25
2023-03-31T03:15:02.436Z,38.00
2023-03-31T03:17:42.379Z,35.25
2023-03-31T03:20:12.235Z,37.25
2023-03-31T03:22:41.703Z,38.25
2023-03-31T03:25:14.219Z,35.25
2023-03-31T03:27:42.686Z,35.25
2023-03-31T03:30:14.865Z,34.25
2023-03-31T03:32:43.913Z,34.00
2023-03-31T03:35:12.619Z,36.00
2023-03-31T03:37:41.189Z,37.50
2023-03-31T03:40:10.513Z,35.50
2023-03-31T03:42:39.542Z,36.50
2023-03-31T03:45:08.986Z,35.00
2023-03-31T03:47:37.523Z,36.25
2023-03-31T03:50:06.426Z,37.50
2023-03-31T03:52:34.896Z,36.00
2023-03-31T03:55:03.313Z,35.75
2023-03-31T03:57:31.865Z,34.25
2023-03-31T04:00:00.320Z,35.75
2023-03-31T04:02:29.644Z,37.00
2023-03-31T04:04:58.168Z,35.75
2023-03-31T04:07:26.618Z,37.25
2023-03-31T04:09:55.064Z,38.00
2023-03-31T04:12:23.463Z,34.00
2023-03-31T04:14:51.905Z,32.50
2023-03-31T04:17:20.491Z,37.00
2023-03-31T04:19:51.775Z,34.50
2023-03-31T04:22:21.572Z,33.00
2023-03-31T04:24:53.672Z,37.00
2023-03-31T04:27:24.029Z,34.25
2023-03-31T04:29:55.810Z,34.75
2023-03-31T04:32:25.078Z,33.50
2023-03-31T04:35:03.573Z,35.75
2023-03-31T04:37:35.601Z,34.50
2023-03-31T04:40:10.850Z,36.50
2023-03-31T04:42:41.249Z,37.75
2023-03-31T04:45:10.460Z,33.50
2023-03-31T04:47:39.148Z,34.25
2023-03-31T04:50:10.381Z,33.75
2023-03-31T04:52:41.766Z,36.25
2023-03-31T04:55:10.773Z,35.25
2023-03-31T04:57:39.258Z,37.75
2023-03-31T05:00:08.925Z,36.50
2023-03-31T05:02:37.550Z,35.00
2023-03-31T05:05:06.998Z,35.75
2023-03-31T05:07:35.521Z,36.25
2023-03-31T05:10:04.194Z,35.50
2023-03-31T05:12:37.009Z,35.75
2023-03-31T05:15:08.048Z,36.75
2023-03-31T05:17:37.864Z,37.25
2023-03-31T05:20:08.776Z,37.25
2023-03-31T05:22:43.365Z,38.25
2023-03-31T05:25:19.552Z,35.25
2023-03-31T05:27:49.642Z,33.75
2023-03-31T05:30:19.327Z,33.75
2023-03-31T05:32:47.849Z,36.25
2023-03-31T05:35:16.325Z,36.50
2023-03-31T05:37:45.009Z,37.50
2023-03-31T05:40:13.977Z,36.00
2023-03-31T05:42:42.889Z,35.25
2023-03-31T05:45:11.565Z,34.00
2023-03-31T05:47:40.123Z,33.75
2023-03-31T05:50:10.891Z,32.25
2023-03-31T05:52:40.479Z,32.50
2023-03-31T05:55:09.554Z,34.50
2023-03-31T05:57:38.022Z,33.00
2023-03-31T06:00:07.596Z,33.25
2023-03-31T06:02:36.199Z,33.00
2023-03-31T06:05:04.919Z,33.50
2023-03-31T06:07:33.464Z,36.00
2023-03-31T06:10:01.941Z,33.50
2023-03-31T06:12:30.452Z,32.25
2023-03-31T06:14:59.028Z,31.00
2023-03-31T06:17:27.524Z,33.00
2023-03-31T06:19:56.823Z,31.75
2023-03-31T06:22:25.357Z,34.00
2023-03-31T06:24:53.820Z,33.00
2023-03-31T06:27:22.479Z,34.25
2023-03-31T06:29:51.351Z,33.00
2023-03-31T06:32:19.770Z,34.00
2023-03-31T06:34:48.352Z,32.50
2023-03-31T06:37:16.807Z,32.50
2023-03-31T06:39:45.768Z,31.75
2023-03-31T06:42:14.232Z,32.00
2023-03-31T06:44:42.855Z,32.75
2023-03-31T06:47:11.494Z,29.50
2023-03-31T06:49:39.888Z,29.00
2023-03-31T06:52:08.383Z,31.75
2023-03-31T06:54:36.905Z,28.25
2023-03-31T06:57:05.333Z,28.00
2023-03-31T06:59:33.759Z,30.25
2023-03-31T07:02:03.110Z,29.50
2023-03-31T07:04:31.654Z,31.75
2023-03-31T07:07:00.768Z,30.50
2023-03-31T07:09:29.200Z,28.75
2023-03-31T07:11:57.572Z,28.75
2023-03-31T07:14:26.076Z,29.25
2023-03-31T07:16:54.559Z,30.75
2023-03-31T07:19:23.917Z,29.25
2023-03-31T07:21:52.444Z,29.75
2023-03-31T07:24:21.346Z,30.00
2023-03-31T07:26:50.024Z,29.25
2023-03-31T07:29:18.459Z,28.50
2023-03-31T07:31:49.230Z,26.75
2023-03-31T07:34:17.730Z,26.75
2023-03-31T07:36:46.188Z,30.00
2023-03-31T07:39:14.762Z,29.50
2023-03-31T07:41:44.254Z,28.50
2023-03-31T07:44:12.698Z,29.25
2023-03-31T07:46:41.743Z,26.50
2023-03-31T07:49:11.414Z,28.00
2023-03-31T07:51:39.826Z,24.75
2023-03-31T07:54:08.285Z,23.75
2023-03-31T07:56:36.701Z,27.25
2023-03-31T07:59:05.164Z,25.25
2023-03-31T08:01:33.857Z,21.50
2023-03-31T08:04:03.123Z,21.75
2023-03-31T08:06:31.727Z,24.00
2023-03-31T08:09:00.639Z,22.50
2023-03-31T08:11:29.355Z,25.50
2023-03-31T08:13:57.776Z,24.75
2023-03-31T08:16:28.094Z,24.00
2023-03-31T08:18:56.546Z,25.50
2023-03-31T08:21:24.960Z,21.50
2023-03-31T08:23:56.227Z,22.25
2023-03-31T08:26:26.461Z,22.75
2023-03-31T08:28:55.046Z,22.00
2023-03-31T08:31:27.141Z,25.25
2023-03-31T08:33:56.381Z,23.00
2023-03-31T08:36:24.745Z,24.00
2023-03-31T08:38:53.176Z,24.50
2023-03-31T08:41:47.898Z,25.25
2023-03-31T08:44:39.915Z,26.00
2023-03-31T08:47:17.189Z,25.00
2023-03-31T08:50:13.408Z,24.00
2023-03-31T08:52:50.646Z,26.25
2023-03-31T08:55:29.231Z,23.25
2023-03-31T08:58:07.538Z,26.00
2023-03-31T09:00:52.965Z,24.00
2023-03-31T09:03:45.868Z,25.75
2023-03-31T09:06:23.822Z,22.75
2023-03-31T09:08:58.436Z,25.75
2023-03-31T09:11:41.843Z,21.75
2023-03-31T09:14:32.597Z,23.25
2023-03-31T09:17:22.922Z,24.75
2023-03-31T09:20:23.372Z,22.00
2023-03-31T09:23:04.555Z,23.25
2023-03-31T09:25:37.384Z,25.50
2023-03-31T09:28:15.696Z,25.00
2023-03-31T09:30:44.890Z,22.00
2023-03-31T09:33:20.180Z,20.50
2023-03-31T09:35:50.001Z,21.25
2023-03-31T09:38:20.526Z,24.25
2023-03-31T09:40:49.928Z,23.25
2023-03-31T09:43:27.090Z,23.50
2023-03-31T09:48:32.402Z,25.50
2023-03-31T09:51:04.592Z,24.50
2023-03-31T09:53:48.390Z,21.50
2023-03-31T09:56:34.741Z,20.50
2023-03-31T09:59:04.887Z,26.25
2023-03-31T10:01:34.144Z,22.00
2023-03-31T10:04:06.531Z,21.50
2023-03-31T10:06:41.777Z,23.75
2023-03-31T10:09:12.889Z,20.75
2023-03-31T10:11:52.539Z,23.00
2023-03-31T10:14:28.279Z,21.25
2023-03-31T10:16:58.569Z,25.00
2023-03-31T10:19:34.169Z,22.75
2023-03-31T10:22:07.443Z,20.25
2023-03-31T10:24:41.893Z,22.25
2023-03-31T10:27:24.035Z,22.50
2023-03-31T10:30:00.888Z,21.75
2023-03-31T10:32:35.126Z,22.00
2023-03-31T10:35:37.052Z,22.50
2023-03-31T10:38:12.104Z,21.00
2023-03-31T10:40:51.113Z,18.50
2023-03-31T10:43:28.405Z,21.75
2023-03-31T10:45:59.353Z,23.25
2023-03-31T10:48:39.661Z,22.00
2023-03-31T10:51:23.149Z,22.25
2023-03-31T10:53:53.653Z,18.00
2023-03-31T10:56:51.386Z,24.50
2023-03-31T10:59:30.678Z,22.50
2023-03-31T11:02:23.408Z,23.25
2023-03-31T11:05:23.387Z,21.25
2023-03-31T11:08:06.796Z,26.75
2023-03-31T11:11:13.411Z,22.75
2023-03-31T11:14:17.115Z,24.25
2023-03-31T11:16:54.700Z,24.00
2023-03-31T11:19:49.152Z,21.25
2023-03-31T11:22:42.243Z,26.25
2023-03-31T11:25:15.178Z,22.25
2023-03-31T11:28:21.973Z,25.25
2023-03-31T11:31:13.471Z,22.50
2023-03-31T11:34:00.153Z,23.50
2023-03-31T11:36:37.839Z,22.00
2023-03-31T11:39:16.397Z,24.00
2023-03-31T11:41:56.967Z,25.00
2023-03-31T11:44:40.005Z,26.75
2023-03-31T11:47:16.476Z,23.75
2023-03-31T11:49:55.770Z,21.75
2023-03-31T11:52:30.281Z,21.50
2023-03-31T11:55:08.907Z,24.50
2023-03-31T11:58:03.660Z,21.00
2023-03-31T12:00:37.708Z,22.00
2023-03-31T12:03:18.918Z,23.00
2023-03-31T12:05:55.032Z,22.75
2023-03-31T12:08:32.485Z,24.50
2023-03-31T12:11:12.276Z,25.75
2023-03-31T12:14:03.637Z,23.75
2023-03-31T12:17:15.635Z,24.50
2023-03-31T12:19:49.595Z,24.25
2023-03-31T12:22:30.524Z,24.00
2023-03-31T12:24:59.538Z,29.25
2023-03-31T12:27:39.309Z,24.25
2023-03-31T12:30:17.748Z,26.00
2023-03-31T12:32:52.742Z,26.75
2023-03-31T12:35:36.089Z,27.50
2023-03-31T12:38:27.134Z,24.25
2023-03-31T12:41:08.542Z,26.25
2023-03-31T12:43:57.089Z,26.25
2023-03-31T12:46:37.332Z,27.75
2023-03-31T12:49:15.329Z,23.50
2023-03-31T12:52:01.977Z,26.50
2023-03-31T12:55:00.956Z,27.25
2023-03-31T12:57:29.595Z,26.50
2023-03-31T13:00:18.141Z,27.00
2023-03-31T13:02:46.794Z,26.00
2023-03-31T13:05:39.819Z,24.75
2023-03-31T13:08:11.754Z,24.25
2023-03-31T13:10:59.973Z,25.75
2023-03-31T13:13:28.689Z,24.25
2023-03-31T13:16:00.828Z,27.75
2023-03-31T13:18:33.923Z,26.75
2023-03-31T13:21:05.844Z,28.75
2023-03-31T13:23:38.662Z,24.00
2023-03-31T13:26:07.955Z,24.00
2023-03-31T13:28:44.892Z,28.50
2023-03-31T13:31:15.856Z,28.50
2023-03-31T13:33:48.930Z,26.00
2023-03-31T13:36:26.116Z,26.75
2023-03-31T13:39:48.089Z,26.50
2023-03-31T13:42:51.935Z,28.50
2023-03-31T13:45:53.394Z,27.75
2023-03-31T13:48:45.465Z,30.00
2023-03-31T13:51:24.849Z,31.00
2023-03-31T13:54:21.592Z,35.75
2023-03-31T13:57:28.033Z,38.25
2023-03-31T14:00:15.267Z,33.75
2023-03-31T14:03:20.747Z,34.50
2023-03-31T14:06:06.558Z,38.50
2023-03-31T14:08:46.745Z,37.75
2023-03-31T14:11:32.636Z,39.00
2023-03-31T14:14:05.129Z,35.00
2023-03-31T14:16:41.128Z,33.50
2023-03-31T14:19:28.346Z,30.33
2023-03-31T14:22:08.162Z,30.50
2023-03-31T14:24:57.598Z,28.25
2023-03-31T14:27:48.236Z,32.00
2023-03-31T14:30:39.560Z,30.50
2023-03-31T14:33:38.124Z,29.25
2023-03-31T14:36:39.150Z,29.25
2023-03-31T14:39:12.118Z,28.00
2023-03-31T14:41:41.076Z,30.50
2023-03-31T14:44:15.804Z,27.25
2023-03-31T14:46:44.287Z,28.50
2023-03-31T14:49:38.003Z,30.75
2023-03-31T14:52:21.353Z,26.75
2023-03-31T14:54:49.830Z,29.50
2023-03-31T14:57:27.435Z,29.25
2023-03-31T14:59:56.811Z,28.25
2023-03-31T15:02:34.416Z,30.00
2023-03-31T15:05:12.186Z,30.25
2023-03-31T15:07:42.875Z,30.75
2023-03-31T15:10:21.634Z,32.00
2023-03-31T15:12:52.758Z,30.00
2023-03-31T15:15:22.325Z,29.00
2023-03-31T15:17:50.907Z,31.50
2023-03-31T15:20:31.902Z,29.25
2023-03-31T15:23:19.507Z,31.25
2023-03-31T15:25:48.421Z,29.50
2023-03-31T15:28:19.457Z,30.75
2023-03-31T15:30:59.715Z,32.75
2023-03-31T15:33:42.322Z,29.75
2023-03-31T15:36:13.893Z,31.50
2023-03-31T15:38:42.976Z,32.25
2023-03-31T15:41:17.853Z,30.25
2023-03-31T15:43:47.604Z,31.75
2023-03-31T15:46:48.003Z,32.25
2023-03-31T15:49:25.432Z,31.50
2023-03-31T15:52:01.549Z,28.50
2023-03-31T15:54:42.467Z,31.75
2023-03-31T15:57:15.952Z,29.75
2023-03-31T15:59:56.348Z,30.00
2023-03-31T16:02:28.844Z,28.50
2023-03-31T16:05:00.190Z,27.75
2023-03-31T16:07:33.846Z,28.75
2023-03-31T16:10:16.478Z,27.75
2023-03-31T16:13:02.252Z,28.25
2023-03-31T16:15:43.349Z,29.50
2023-03-31T16:18:18.821Z,28.75
2023-03-31T16:20:57.234Z,27.75
2023-03-31T16:23:32.455Z,29.75
2023-03-31T16:26:02.687Z,28.25
2023-03-31T16:28:35.026Z,28.50
2023-03-31T16:31:04.523Z,31.25
2023-03-31T16:33:53.605Z,29.00
2023-03-31T16:36:22.034Z,28.75
2023-03-31T16:38:54.818Z,31.00
2023-03-31T16:41:28.024Z,29.00
2023-03-31T16:43:56.891Z,30.75
2023-03-31T16:46:26.198Z,27.25
2023-03-31T16:48:55.279Z,29.75
2023-03-31T16:51:24.205Z,29.00
2023-03-31T16:53:52.709Z,30.75
2023-03-31T16:56:22.020Z,30.25
2023-03-31T16:58:50.953Z,28.25
2023-03-31T17:01:19.374Z,29.25
2023-03-31T17:03:49.494Z,31.00
2023-03-31T17:06:18.118Z,28.75
2023-03-31T17:08:46.713Z,30.00
2023-03-31T17:11:15.980Z,26.75
2023-03-31T17:13:45.644Z,26.75
2023-03-31T17:16:21.929Z,25.25
2023-03-31T17:18:55.843Z,24.25
2023-03-31T17:21:24.731Z,27.75
2023-03-31T17:23:53.255Z,26.75
2023-03-31T17:26:22.987Z,26.75
2023-03-31T17:28:51.526Z,27.25
2023-03-31T17:31:22.446Z,25.75
2023-03-31T17:33:50.981Z,26.00
2023-03-31T17:36:19.495Z,29.00
2023-03-31T17:38:48.043Z,25.50
2023-03-31T17:41:18.625Z,25.25
2023-03-31T17:43:48.421Z,29.25
2023-03-31T17:46:18.928Z,28.00
2023-03-31T17:48:47.508Z,28.25
2023-03-31T17:51:18.746Z,25.25
2023-03-31T17:53:48.868Z,25.75
2023-03-31T17:56:20.583Z,28.00
2023-03-31T17:58:48.982Z,29.75
2023-03-31T18:01:17.486Z,26.75
2023-03-31T18:03:47.221Z,28.00
2023-03-31T18:06:16.686Z,24.25
2023-03-31T18:08:45.450Z,23.25
2023-03-31T18:11:14.397Z,25.00
2023-03-31T18:13:42.982Z,27.75
2023-03-31T18:16:14.187Z,25.50
2023-03-31T18:18:43.360Z,27.75
2023-03-31T18:21:14.646Z,28.75
2023-03-31T18:23:43.615Z,27.50
2023-03-31T18:26:15.118Z,25.75
2023-03-31T18:28:43.515Z,29.75
2023-03-31T18:31:13.347Z,27.50
2023-03-31T18:33:42.898Z,29.00
2023-03-31T18:36:20.741Z,23.75
2023-03-31T18:38:51.052Z,26.25
2023-03-31T18:41:20.209Z,29.50
2023-03-31T18:43:55.069Z,27.50
2023-03-31T18:46:23.676Z,30.00
2023-03-31T18:48:52.328Z,27.50
2023-03-31T18:51:21.070Z,28.00
2023-03-31T18:53:49.536Z,27.75
2023-03-31T18:56:17.997Z,24.75
2023-03-31T18:58:46.456Z,26.75
2023-03-31T19:01:14.941Z,25.75
2023-03-31T19:03:45.369Z,27.00
2023-03-31T19:06:14.304Z,23.25
2023-03-31T19:08:42.770Z,27.25
2023-03-31T19:11:13.880Z,26.50
2023-03-31T19:13:43.841Z,24.75
2023-03-31T19:16:14.576Z,25.25
2023-03-31T19:18:44.582Z,21.00
2023-03-31T19:21:13.385Z,18.75
2023-03-31T19:23:41.893Z,18.50
2023-03-31T19:26:15.267Z,20.50
2023-03-31T19:28:44.175Z,22.25
2023-03-31T19:31:13.180Z,21.00
2023-03-31T19:33:42.287Z,22.00
2023-03-31T19:36:11.506Z,20.00
2023-03-31T19:38:40.151Z,22.25
2023-03-31T19:41:08.823Z,21.25
2023-03-31T19:43:37.221Z,20.25
2023-03-31T19:46:05.695Z,21.25
2023-03-31T19:48:34.705Z,20.50
2023-03-31T19:51:07.085Z,19.50
2023-03-31T19:53:37.819Z,18.25
2023-03-31T19:56:09.964Z,22.75
2023-03-31T19:58:38.822Z,20.75
2023-03-31T20:01:19.064Z,20.75
2023-03-31T20:03:47.887Z,18.25
2023-03-31T20:06:16.597Z,24.25
2023-03-31T20:08:45.265Z,19.75
2023-03-31T20:11:15.732Z,18.75
2023-03-31T20:13:45.267Z,23.25
2023-03-31T20:16:17.604Z,20.00
2023-03-31T20:18:50.283Z,21.25
2023-03-31T20:21:21.391Z,20.50
2023-03-31T20:23:50.340Z,19.00
2023-03-31T20:26:21.743Z,17.50
2023-03-31T20:28:50.271Z,18.50
2023-03-31T20:31:22.025Z,21.25
2023-03-31T20:33:52.280Z,19.75
2023-03-31T20:36:23.295Z,18.75
2023-03-31T20:38:54.137Z,19.75
2023-03-31T20:41:25.380Z,22.00
2023-03-31T20:43:55.759Z,21.75
2023-03-31T20:46:24.651Z,21.00
2023-03-31T20:48:56.836Z,22.00
2023-03-31T20:51:30.914Z,20.75
2023-03-31T20:54:01.271Z,23.50
2023-03-31T20:56:37.937Z,20.25
2023-03-31T20:59:08.391Z,21.00
2023-03-31T21:01:38.269Z,21.75
2023-03-31T21:04:08.762Z,19.25
2023-03-31T21:06:42.896Z,19.25
2023-03-31T21:09:13.221Z,17.75
2023-03-31T21:11:42.509Z,20.50
2023-03-31T21:14:19.574Z,20.00
2023-03-31T21:16:48.015Z,19.75
2023-03-31T21:19:16.458Z,18.50
2023-03-31T21:21:44.858Z,19.50
2023-03-31T21:24:14.310Z,18.00
2023-03-31T21:26:43.082Z,20.00
2023-03-31T21:29:11.727Z,18.25
2023-03-31T21:31:40.294Z,18.25
2023-03-31T21:34:09.045Z,16.00
2023-03-31T21:36:37.567Z,19.25
2023-03-31T21:39:06.515Z,16.50
2023-03-31T21:41:35.106Z,20.00
2023-03-31T21:44:04.166Z,16.25
2023-03-31T21:46:34.588Z,19.50
2023-03-31T21:49:05.449Z,16.50
2023-03-31T21:51:33.883Z,17.00
2023-03-31T21:54:02.391Z,17.25
2023-03-31T21:56:32.352Z,20.50
2023-03-31T21:59:02.107Z,17.25
2023-03-31T22:01:30.934Z,18.25
2023-03-31T22:04:00.597Z,15.00
2023-03-31T22:06:29.736Z,16.25
2023-03-31T22:08:58.226Z,19.75
2023-03-31T22:11:27.680Z,20.25
2023-03-31T22:13:56.294Z,16.00
2023-03-31T22:16:25.217Z,17.50
2023-03-31T22:18:55.253Z,17.00
2023-03-31T22:21:26.457Z,20.75
2023-03-31T22:24:00.772Z,22.00
2023-03-31T22:26:31.040Z,19.50
2023-03-31T22:28:59.849Z,17.25
2023-03-31T22:31:29.149Z,18.50
2023-03-31T22:33:57.671Z,15.50
2023-03-31T22:36:26.120Z,15.00
2023-03-31T22:38:54.576Z,17.00
2023-03-31T22:41:23.372Z,17.75
2023-03-31T22:43:52.471Z,20.25
2023-03-31T22:46:20.966Z,16.50
2023-03-31T22:48:52.389Z,15.00
2023-03-31T22:51:20.812Z,18.50
2023-03-31T22:53:53.622Z,15.50
2023-03-31T22:56:23.979Z,15.00
2023-03-31T22:58:53.270Z,17.50
2023-03-31T23:01:22.830Z,18.50
2023-03-31T23:03:51.722Z,15.00
2023-03-31T23:06:20.460Z,17.75
2023-03-31T23:08:53.517Z,19.50
2023-03-31T23:11:22.103Z,17.25
2023-03-31T23:13:50.497Z,17.25
2023-03-31T23:16:22.248Z,19.00
2023-03-31T23:18:53.525Z,20.50
2023-03-31T23:21:28.406Z,16.50
2023-03-31T23:23:59.597Z,20.00
2023-03-31T23:26:29.394Z,14.00
2023-03-31T23:28:58.589Z,17.25
2023-03-31T23:31:33.659Z,17.50
2023-03-31T23:34:02.660Z,18.75
2023-03-31T23:36:31.994Z,18.50
2023-03-31T23:39:00.400Z,20.25
2023-03-31T23:41:28.962Z,18.25
2023-03-31T23:43:58.584Z,18.00
2023-03-31T23:46:27.540Z,17.75
2023-03-31T23:48:56.705Z,16.50
2023-03-31T23:51:25.739Z,19.75
2023-03-31T23:53:54.343Z,18.50
2023-03-31T23:56:23.267Z,20.00
2023-03-31T23:58:51.905Z,17.50
